sensor_id;sensor_type;location;lat;lon;timestamp;P1;durP1;ratioP1;P2;durP2;ratioP2
72939;SDS011;61094;51.154;13.570;2023-06-24T00:02:11;14.95;;;5.15;;
72939;SDS011;61094;51.154;13.570;2023-06-24T00:07:12;14.60;;;4.78;;
72939;SDS011;61094;51.154;13.570;2023-06-24T00:12:14;11.68;;;5.28;;
72939;SDS011;61094;51.154;13.570;2023-06-24T00:17:20;11.88;;;5.07;;
72939;SDS011;61094;51.154;13.570;2023-06-24T00:22:22;12.10;;;5.05;;
72939;SDS011;61094;51.154;13.570;2023-06-24T00:27:23;15.93;;;5.63;;
72939;SDS011;61094;51.154;13.570;2023-06-24T00:32:26;12.82;;;5.63;;
72939;SDS011;61094;51.154;13.570;2023-06-24T00:37:28;13.07;;;5.75;;
72939;SDS011;61094;51.154;13.570;2023-06-24T00:42:30;14.43;;;5.53;;
72939;SDS011;61094;51.154;13.570;2023-06-24T00:47:33;15.35;;;5.80;;
72939;SDS011;61094;51.154;13.570;2023-06-24T00:52:35;14.15;;;5.75;;
72939;SDS011;61094;51.154;13.570;2023-06-24T00:57:39;15.75;;;5.97;;
72939;SDS011;61094;51.154;13.570;2023-06-24T01:02:42;14.90;;;5.85;;
72939;SDS011;61094;51.154;13.570;2023-06-24T01:07:44;17.15;;;8.20;;
72939;SDS011;61094;51.154;13.570;2023-06-24T01:12:55;16.50;;;6.97;;
72939;SDS011;61094;51.154;13.570;2023-06-24T01:18:01;15.77;;;6.78;;
72939;SDS011;61094;51.154;13.570;2023-06-24T01:23:18;19.58;;;7.15;;
72939;SDS011;61094;51.154;13.570;2023-06-24T01:28:33;18.63;;;6.88;;
72939;SDS011;61094;51.154;13.570;2023-06-24T01:34:01;16.20;;;7.63;;
72939;SDS011;61094;51.154;13.570;2023-06-24T01:39:08;19.48;;;7.40;;
72939;SDS011;61094;51.154;13.570;2023-06-24T01:44:13;19.08;;;7.47;;
72939;SDS011;61094;51.154;13.570;2023-06-24T01:49:18;15.95;;;7.53;;
72939;SDS011;61094;51.154;13.570;2023-06-24T01:54:23;18.33;;;7.47;;
72939;SDS011;61094;51.154;13.570;2023-06-24T01:59:28;15.05;;;6.60;;
72939;SDS011;61094;51.154;13.570;2023-06-24T02:04:31;16.50;;;6.78;;
72939;SDS011;61094;51.154;13.570;2023-06-24T02:09:35;16.70;;;7.13;;
72939;SDS011;61094;51.154;13.570;2023-06-24T02:14:37;18.55;;;8.27;;
72939;SDS011;61094;51.154;13.570;2023-06-24T02:19:42;18.42;;;7.22;;
72939;SDS011;61094;51.154;13.570;2023-06-24T02:24:44;21.15;;;7.65;;
72939;SDS011;61094;51.154;13.570;2023-06-24T02:29:46;18.63;;;8.00;;
72939;SDS011;61094;51.154;13.570;2023-06-24T02:34:50;16.60;;;7.60;;
72939;SDS011;61094;51.154;13.570;2023-06-24T02:39:52;20.20;;;7.75;;
72939;SDS011;61094;51.154;13.570;2023-06-24T02:44:54;20.98;;;8.30;;
72939;SDS011;61094;51.154;13.570;2023-06-24T02:49:57;18.50;;;7.45;;
72939;SDS011;61094;51.154;13.570;2023-06-24T02:54:59;17.17;;;7.03;;
72939;SDS011;61094;51.154;13.570;2023-06-24T03:00:19;19.73;;;7.70;;
72939;SDS011;61094;51.154;13.570;2023-06-24T03:05:41;21.42;;;7.70;;
72939;SDS011;61094;51.154;13.570;2023-06-24T03:10:45;17.10;;;7.60;;
72939;SDS011;61094;51.154;13.570;2023-06-24T03:15:53;18.45;;;7.95;;
72939;SDS011;61094;51.154;13.570;2023-06-24T03:20:56;19.33;;;7.47;;
72939;SDS011;61094;51.154;13.570;2023-06-24T03:26:02;20.13;;;8.00;;
72939;SDS011;61094;51.154;13.570;2023-06-24T03:31:04;17.83;;;7.80;;
72939;SDS011;61094;51.154;13.570;2023-06-24T03:36:07;17.15;;;7.57;;
72939;SDS011;61094;51.154;13.570;2023-06-24T03:41:09;18.50;;;7.57;;
72939;SDS011;61094;51.154;13.570;2023-06-24T03:46:12;17.95;;;7.13;;
72939;SDS011;61094;51.154;13.570;2023-06-24T03:51:15;17.73;;;7.38;;
72939;SDS011;61094;51.154;13.570;2023-06-24T03:56:19;21.17;;;7.53;;
72939;SDS011;61094;51.154;13.570;2023-06-24T04:01:20;16.20;;;7.20;;
72939;SDS011;61094;51.154;13.570;2023-06-24T04:06:24;17.77;;;7.55;;
72939;SDS011;61094;51.154;13.570;2023-06-24T04:11:27;14.73;;;7.38;;
72939;SDS011;61094;51.154;13.570;2023-06-24T04:16:29;19.52;;;7.45;;
72939;SDS011;61094;51.154;13.570;2023-06-24T04:21:32;14.70;;;6.57;;
72939;SDS011;61094;51.154;13.570;2023-06-24T04:26:34;19.15;;;6.10;;
72939;SDS011;61094;51.154;13.570;2023-06-24T04:31:36;12.88;;;6.40;;
72939;SDS011;61094;51.154;13.570;2023-06-24T04:36:39;14.32;;;6.63;;
72939;SDS011;61094;51.154;13.570;2023-06-24T04:41:41;14.00;;;6.30;;
72939;SDS011;61094;51.154;13.570;2023-06-24T04:46:43;13.43;;;5.85;;
72939;SDS011;61094;51.154;13.570;2023-06-24T04:51:46;21.25;;;7.38;;
72939;SDS011;61094;51.154;13.570;2023-06-24T04:56:48;16.60;;;7.25;;
72939;SDS011;61094;51.154;13.570;2023-06-24T05:06:53;24.95;;;9.60;;
72939;SDS011;61094;51.154;13.570;2023-06-24T05:11:55;23.45;;;9.13;;
72939;SDS011;61094;51.154;13.570;2023-06-24T05:16:57;21.48;;;8.85;;
72939;SDS011;61094;51.154;13.570;2023-06-24T05:22:00;23.77;;;9.63;;
72939;SDS011;61094;51.154;13.570;2023-06-24T05:27:03;23.33;;;8.85;;
72939;SDS011;61094;51.154;13.570;2023-06-24T05:32:06;21.05;;;10.07;;
72939;SDS011;61094;51.154;13.570;2023-06-24T05:37:09;25.85;;;9.50;;
72939;SDS011;61094;51.154;13.570;2023-06-24T05:42:11;23.63;;;10.35;;
72939;SDS011;61094;51.154;13.570;2023-06-24T05:47:13;22.25;;;9.10;;
72939;SDS011;61094;51.154;13.570;2023-06-24T05:52:16;24.90;;;9.75;;
72939;SDS011;61094;51.154;13.570;2023-06-24T05:57:18;19.83;;;9.23;;
72939;SDS011;61094;51.154;13.570;2023-06-24T06:02:19;20.92;;;9.20;;
72939;SDS011;61094;51.154;13.570;2023-06-24T06:07:22;19.23;;;8.80;;
72939;SDS011;61094;51.154;13.570;2023-06-24T06:12:24;29.30;;;13.10;;
72939;SDS011;61094;51.154;13.570;2023-06-24T06:17:26;23.42;;;9.35;;
72939;SDS011;61094;51.154;13.570;2023-06-24T06:22:29;21.30;;;9.40;;
72939;SDS011;61094;51.154;13.570;2023-06-24T06:27:32;17.63;;;8.15;;
72939;SDS011;61094;51.154;13.570;2023-06-24T06:32:33;19.15;;;9.07;;
72939;SDS011;61094;51.154;13.570;2023-06-24T06:37:36;18.10;;;8.60;;
72939;SDS011;61094;51.154;13.570;2023-06-24T06:42:38;25.27;;;9.73;;
72939;SDS011;61094;51.154;13.570;2023-06-24T06:47:40;23.40;;;9.80;;
72939;SDS011;61094;51.154;13.570;2023-06-24T06:52:43;18.50;;;8.65;;
72939;SDS011;61094;51.154;13.570;2023-06-24T06:57:44;16.15;;;7.82;;
72939;SDS011;61094;51.154;13.570;2023-06-24T07:02:47;19.95;;;8.43;;
72939;SDS011;61094;51.154;13.570;2023-06-24T07:07:52;14.02;;;7.88;;
72939;SDS011;61094;51.154;13.570;2023-06-24T07:12:54;19.00;;;7.30;;
72939;SDS011;61094;51.154;13.570;2023-06-24T07:17:58;16.33;;;7.60;;
72939;SDS011;61094;51.154;13.570;2023-06-24T07:23:01;18.08;;;7.25;;
72939;SDS011;61094;51.154;13.570;2023-06-24T07:28:03;14.00;;;6.18;;
72939;SDS011;61094;51.154;13.570;2023-06-24T07:33:05;13.38;;;6.40;;
72939;SDS011;61094;51.154;13.570;2023-06-24T07:38:08;14.55;;;6.55;;
72939;SDS011;61094;51.154;13.570;2023-06-24T07:43:09;12.60;;;6.18;;
72939;SDS011;61094;51.154;13.570;2023-06-24T07:48:12;12.13;;;6.00;;
72939;SDS011;61094;51.154;13.570;2023-06-24T07:53:15;11.80;;;4.78;;
72939;SDS011;61094;51.154;13.570;2023-06-24T07:58:18;12.77;;;5.57;;
72939;SDS011;61094;51.154;13.570;2023-06-24T08:03:20;12.25;;;5.72;;
72939;SDS011;61094;51.154;13.570;2023-06-24T08:08:24;10.98;;;5.18;;
72939;SDS011;61094;51.154;13.570;2023-06-24T08:13:31;10.35;;;4.65;;
72939;SDS011;61094;51.154;13.570;2023-06-24T08:18:55;9.13;;;4.57;;
72939;SDS011;61094;51.154;13.570;2023-06-24T08:30:32;10.38;;;4.20;;
72939;SDS011;61094;51.154;13.570;2023-06-24T08:35:34;8.43;;;3.80;;
72939;SDS011;61094;51.154;13.570;2023-06-24T08:45:40;10.45;;;3.60;;
72939;SDS011;61094;51.154;13.570;2023-06-24T08:50:43;6.90;;;3.00;;
72939;SDS011;61094;51.154;13.570;2023-06-24T08:55:48;7.22;;;2.83;;
72939;SDS011;61094;51.154;13.570;2023-06-24T09:00:54;7.50;;;2.83;;
72939;SDS011;61094;51.154;13.570;2023-06-24T09:05:57;7.65;;;3.05;;
72939;SDS011;61094;51.154;13.570;2023-06-24T09:11:01;7.25;;;3.00;;
72939;SDS011;61094;51.154;13.570;2023-06-24T09:16:10;6.72;;;2.85;;
72939;SDS011;61094;51.154;13.570;2023-06-24T09:21:14;8.77;;;3.08;;
72939;SDS011;61094;51.154;13.570;2023-06-24T09:26:25;6.13;;;2.83;;
72939;SDS011;61094;51.154;13.570;2023-06-24T09:31:29;9.13;;;3.20;;
72939;SDS011;61094;51.154;13.570;2023-06-24T09:41:34;8.38;;;3.45;;
72939;SDS011;61094;51.154;13.570;2023-06-24T09:46:36;6.05;;;2.78;;
72939;SDS011;61094;51.154;13.570;2023-06-24T09:51:39;6.75;;;2.88;;
72939;SDS011;61094;51.154;13.570;2023-06-24T09:56:45;7.88;;;2.67;;
72939;SDS011;61094;51.154;13.570;2023-06-24T10:01:49;7.20;;;2.65;;
72939;SDS011;61094;51.154;13.570;2023-06-24T10:06:54;5.85;;;2.22;;
72939;SDS011;61094;51.154;13.570;2023-06-24T10:17:02;6.50;;;2.50;;
72939;SDS011;61094;51.154;13.570;2023-06-24T10:22:06;6.82;;;2.95;;
72939;SDS011;61094;51.154;13.570;2023-06-24T10:27:15;5.95;;;2.42;;
72939;SDS011;61094;51.154;13.570;2023-06-24T10:32:18;6.47;;;2.83;;
72939;SDS011;61094;51.154;13.570;2023-06-24T10:37:22;5.95;;;2.50;;
72939;SDS011;61094;51.154;13.570;2023-06-24T10:42:30;6.13;;;2.85;;
72939;SDS011;61094;51.154;13.570;2023-06-24T10:47:33;8.15;;;2.80;;
72939;SDS011;61094;51.154;13.570;2023-06-24T10:52:37;5.82;;;2.90;;
72939;SDS011;61094;51.154;13.570;2023-06-24T10:57:41;5.78;;;2.03;;
72939;SDS011;61094;51.154;13.570;2023-06-24T11:02:43;6.03;;;2.28;;
72939;SDS011;61094;51.154;13.570;2023-06-24T11:07:45;7.57;;;2.72;;
72939;SDS011;61094;51.154;13.570;2023-06-24T11:12:48;5.97;;;2.33;;
72939;SDS011;61094;51.154;13.570;2023-06-24T11:17:50;5.80;;;2.55;;
72939;SDS011;61094;51.154;13.570;2023-06-24T11:22:52;6.95;;;2.75;;
72939;SDS011;61094;51.154;13.570;2023-06-24T11:27:56;6.55;;;2.70;;
72939;SDS011;61094;51.154;13.570;2023-06-24T11:32:58;6.32;;;2.40;;
72939;SDS011;61094;51.154;13.570;2023-06-24T11:38:00;5.50;;;2.40;;
72939;SDS011;61094;51.154;13.570;2023-06-24T11:48:07;6.40;;;2.10;;
72939;SDS011;61094;51.154;13.570;2023-06-24T11:53:09;5.90;;;2.53;;
72939;SDS011;61094;51.154;13.570;2023-06-24T12:03:22;5.82;;;2.17;;
72939;SDS011;61094;51.154;13.570;2023-06-24T12:08:24;5.88;;;2.47;;
72939;SDS011;61094;51.154;13.570;2023-06-24T12:13:28;5.90;;;2.10;;
72939;SDS011;61094;51.154;13.570;2023-06-24T12:18:29;5.68;;;2.20;;
72939;SDS011;61094;51.154;13.570;2023-06-24T12:28:34;5.82;;;2.40;;
72939;SDS011;61094;51.154;13.570;2023-06-24T12:33:36;6.30;;;2.33;;
72939;SDS011;61094;51.154;13.570;2023-06-24T12:38:38;5.93;;;2.40;;
72939;SDS011;61094;51.154;13.570;2023-06-24T12:43:42;5.40;;;2.40;;
72939;SDS011;61094;51.154;13.570;2023-06-24T12:48:44;6.95;;;2.55;;
72939;SDS011;61094;51.154;13.570;2023-06-24T12:53:45;6.70;;;2.40;;
72939;SDS011;61094;51.154;13.570;2023-06-24T12:58:50;5.70;;;2.50;;
72939;SDS011;61094;51.154;13.570;2023-06-24T13:03:52;4.90;;;2.28;;
72939;SDS011;61094;51.154;13.570;2023-06-24T13:08:53;5.20;;;2.45;;
72939;SDS011;61094;51.154;13.570;2023-06-24T13:19:02;6.35;;;2.40;;
72939;SDS011;61094;51.154;13.570;2023-06-24T13:24:07;5.28;;;2.20;;
72939;SDS011;61094;51.154;13.570;2023-06-24T13:29:10;7.07;;;2.13;;
72939;SDS011;61094;51.154;13.570;2023-06-24T13:34:13;4.78;;;2.20;;
72939;SDS011;61094;51.154;13.570;2023-06-24T13:39:15;5.22;;;1.95;;
72939;SDS011;61094;51.154;13.570;2023-06-24T13:44:18;6.82;;;2.45;;
72939;SDS011;61094;51.154;13.570;2023-06-24T13:49:20;6.40;;;2.35;;
72939;SDS011;61094;51.154;13.570;2023-06-24T13:54:22;6.05;;;2.03;;
72939;SDS011;61094;51.154;13.570;2023-06-24T13:59:25;5.55;;;2.10;;
72939;SDS011;61094;51.154;13.570;2023-06-24T14:04:27;5.78;;;2.22;;
72939;SDS011;61094;51.154;13.570;2023-06-24T14:09:29;5.35;;;2.47;;
72939;SDS011;61094;51.154;13.570;2023-06-24T14:14:33;5.43;;;2.33;;
72939;SDS011;61094;51.154;13.570;2023-06-24T14:19:36;5.80;;;2.60;;
72939;SDS011;61094;51.154;13.570;2023-06-24T14:24:38;6.97;;;2.17;;
72939;SDS011;61094;51.154;13.570;2023-06-24T14:29:41;4.72;;;1.80;;
72939;SDS011;61094;51.154;13.570;2023-06-24T14:34:43;4.60;;;1.90;;
72939;SDS011;61094;51.154;13.570;2023-06-24T14:39:44;5.35;;;2.20;;
72939;SDS011;61094;51.154;13.570;2023-06-24T14:44:47;6.07;;;2.35;;
72939;SDS011;61094;51.154;13.570;2023-06-24T14:49:49;6.75;;;2.60;;
72939;SDS011;61094;51.154;13.570;2023-06-24T14:54:50;5.45;;;2.20;;
72939;SDS011;61094;51.154;13.570;2023-06-24T14:59:53;5.75;;;2.00;;
72939;SDS011;61094;51.154;13.570;2023-06-24T15:04:55;4.30;;;1.80;;
72939;SDS011;61094;51.154;13.570;2023-06-24T15:09:57;7.28;;;2.28;;
72939;SDS011;61094;51.154;13.570;2023-06-24T15:15:01;5.43;;;2.03;;
72939;SDS011;61094;51.154;13.570;2023-06-24T15:20:03;5.07;;;2.03;;
72939;SDS011;61094;51.154;13.570;2023-06-24T15:25:05;4.93;;;1.83;;
72939;SDS011;61094;51.154;13.570;2023-06-24T15:30:09;6.43;;;2.63;;
72939;SDS011;61094;51.154;13.570;2023-06-24T15:35:11;8.32;;;2.28;;
72939;SDS011;61094;51.154;13.570;2023-06-24T15:40:13;6.72;;;2.38;;
72939;SDS011;61094;51.154;13.570;2023-06-24T15:45:16;4.55;;;1.98;;
72939;SDS011;61094;51.154;13.570;2023-06-24T15:50:18;4.97;;;2.15;;
72939;SDS011;61094;51.154;13.570;2023-06-24T16:00:23;4.95;;;1.63;;
72939;SDS011;61094;51.154;13.570;2023-06-24T16:05:25;3.83;;;1.58;;
72939;SDS011;61094;51.154;13.570;2023-06-24T16:10:27;5.35;;;2.13;;
72939;SDS011;61094;51.154;13.570;2023-06-24T16:15:30;5.15;;;2.10;;
72939;SDS011;61094;51.154;13.570;2023-06-24T16:20:31;5.18;;;1.98;;
72939;SDS011;61094;51.154;13.570;2023-06-24T16:25:33;5.40;;;2.45;;
72939;SDS011;61094;51.154;13.570;2023-06-24T16:35:39;4.80;;;2.10;;
72939;SDS011;61094;51.154;13.570;2023-06-24T16:40:44;5.13;;;2.13;;
72939;SDS011;61094;51.154;13.570;2023-06-24T16:50:49;4.45;;;2.08;;
72939;SDS011;61094;51.154;13.570;2023-06-24T16:55:50;6.07;;;2.20;;
72939;SDS011;61094;51.154;13.570;2023-06-24T17:00:54;5.63;;;1.95;;
72939;SDS011;61094;51.154;13.570;2023-06-24T17:05:55;7.15;;;2.30;;
72939;SDS011;61094;51.154;13.570;2023-06-24T17:10:57;5.07;;;2.35;;
72939;SDS011;61094;51.154;13.570;2023-06-24T17:16:00;5.57;;;2.17;;
72939;SDS011;61094;51.154;13.570;2023-06-24T17:21:04;4.97;;;1.92;;
72939;SDS011;61094;51.154;13.570;2023-06-24T17:26:06;5.90;;;2.17;;
72939;SDS011;61094;51.154;13.570;2023-06-24T17:31:09;6.10;;;2.08;;
72939;SDS011;61094;51.154;13.570;2023-06-24T17:36:11;4.75;;;1.77;;
72939;SDS011;61094;51.154;13.570;2023-06-24T17:41:12;6.07;;;2.15;;
72939;SDS011;61094;51.154;13.570;2023-06-24T17:46:15;5.25;;;2.00;;
72939;SDS011;61094;51.154;13.570;2023-06-24T17:51:17;5.18;;;1.80;;
72939;SDS011;61094;51.154;13.570;2023-06-24T17:56:19;4.53;;;1.90;;
72939;SDS011;61094;51.154;13.570;2023-06-24T18:01:24;5.63;;;2.10;;
72939;SDS011;61094;51.154;13.570;2023-06-24T18:06:29;4.60;;;1.83;;
72939;SDS011;61094;51.154;13.570;2023-06-24T18:11:31;4.72;;;1.70;;
72939;SDS011;61094;51.154;13.570;2023-06-24T18:16:38;5.68;;;1.90;;
72939;SDS011;61094;51.154;13.570;2023-06-24T18:21:41;5.47;;;1.65;;
72939;SDS011;61094;51.154;13.570;2023-06-24T18:26:42;5.80;;;2.40;;
72939;SDS011;61094;51.154;13.570;2023-06-24T18:31:46;5.30;;;1.95;;
72939;SDS011;61094;51.154;13.570;2023-06-24T18:36:48;7.65;;;2.80;;
72939;SDS011;61094;51.154;13.570;2023-06-24T18:41:50;6.15;;;2.30;;
72939;SDS011;61094;51.154;13.570;2023-06-24T18:46:53;6.65;;;2.78;;
72939;SDS011;61094;51.154;13.570;2023-06-24T18:51:54;5.15;;;2.17;;
72939;SDS011;61094;51.154;13.570;2023-06-24T18:56:56;5.70;;;2.10;;
72939;SDS011;61094;51.154;13.570;2023-06-24T19:01:59;6.05;;;2.47;;
72939;SDS011;61094;51.154;13.570;2023-06-24T19:07:01;6.13;;;2.70;;
72939;SDS011;61094;51.154;13.570;2023-06-24T19:17:06;6.60;;;2.60;;
72939;SDS011;61094;51.154;13.570;2023-06-24T19:22:08;8.15;;;3.15;;
72939;SDS011;61094;51.154;13.570;2023-06-24T19:27:10;6.28;;;2.92;;
72939;SDS011;61094;51.154;13.570;2023-06-24T19:32:13;7.82;;;3.28;;
72939;SDS011;61094;51.154;13.570;2023-06-24T19:37:15;9.70;;;3.67;;
72939;SDS011;61094;51.154;13.570;2023-06-24T19:42:16;8.95;;;3.58;;
72939;SDS011;61094;51.154;13.570;2023-06-24T19:47:19;9.63;;;4.45;;
72939;SDS011;61094;51.154;13.570;2023-06-24T19:52:21;10.43;;;4.93;;
72939;SDS011;61094;51.154;13.570;2023-06-24T19:57:23;15.05;;;6.00;;
72939;SDS011;61094;51.154;13.570;2023-06-24T20:02:26;14.82;;;5.95;;
72939;SDS011;61094;51.154;13.570;2023-06-24T20:07:28;16.45;;;5.38;;
72939;SDS011;61094;51.154;13.570;2023-06-24T20:12:29;10.98;;;4.90;;
72939;SDS011;61094;51.154;13.570;2023-06-24T20:17:32;13.05;;;5.70;;
72939;SDS011;61094;51.154;13.570;2023-06-24T20:22:34;61.08;;;29.48;;
72939;SDS011;61094;51.154;13.570;2023-06-24T20:27:35;15.52;;;7.65;;
72939;SDS011;61094;51.154;13.570;2023-06-24T20:32:38;14.95;;;7.88;;
72939;SDS011;61094;51.154;13.570;2023-06-24T20:37:40;15.38;;;10.43;;
72939;SDS011;61094;51.154;13.570;2023-06-24T20:42:42;11.27;;;5.78;;
72939;SDS011;61094;51.154;13.570;2023-06-24T20:47:45;9.35;;;4.88;;
72939;SDS011;61094;51.154;13.570;2023-06-24T20:52:47;11.52;;;5.88;;
72939;SDS011;61094;51.154;13.570;2023-06-24T20:57:49;57.08;;;24.23;;
72939;SDS011;61094;51.154;13.570;2023-06-24T21:02:52;19.15;;;9.55;;
72939;SDS011;61094;51.154;13.570;2023-06-24T21:07:53;27.63;;;11.40;;
72939;SDS011;61094;51.154;13.570;2023-06-24T21:12:55;20.80;;;9.45;;
72939;SDS011;61094;51.154;13.570;2023-06-24T21:17:58;28.25;;;13.88;;
72939;SDS011;61094;51.154;13.570;2023-06-24T21:28:35;26.38;;;10.65;;
72939;SDS011;61094;51.154;13.570;2023-06-24T21:33:38;21.85;;;10.23;;
72939;SDS011;61094;51.154;13.570;2023-06-24T21:38:42;15.68;;;8.15;;
72939;SDS011;61094;51.154;13.570;2023-06-24T21:43:44;14.20;;;6.88;;
72939;SDS011;61094;51.154;13.570;2023-06-24T21:48:47;11.48;;;5.93;;
72939;SDS011;61094;51.154;13.570;2023-06-24T21:53:49;12.73;;;5.65;;
72939;SDS011;61094;51.154;13.570;2023-06-24T21:58:50;15.25;;;6.63;;
72939;SDS011;61094;51.154;13.570;2023-06-24T22:03:54;20.63;;;8.27;;
72939;SDS011;61094;51.154;13.570;2023-06-24T22:08:55;16.98;;;7.57;;
72939;SDS011;61094;51.154;13.570;2023-06-24T22:13:57;12.85;;;6.00;;
72939;SDS011;61094;51.154;13.570;2023-06-24T22:19:00;11.48;;;6.22;;
72939;SDS011;61094;51.154;13.570;2023-06-24T22:24:02;16.33;;;7.05;;
72939;SDS011;61094;51.154;13.570;2023-06-24T22:29:04;13.18;;;6.28;;
72939;SDS011;61094;51.154;13.570;2023-06-24T22:34:07;11.15;;;5.78;;
72939;SDS011;61094;51.154;13.570;2023-06-24T22:39:09;12.20;;;6.10;;
72939;SDS011;61094;51.154;13.570;2023-06-24T22:44:10;15.18;;;6.25;;
72939;SDS011;61094;51.154;13.570;2023-06-24T22:49:13;11.88;;;5.90;;
72939;SDS011;61094;51.154;13.570;2023-06-24T22:54:16;13.68;;;6.63;;
72939;SDS011;61094;51.154;13.570;2023-06-24T22:59:17;12.90;;;6.13;;
72939;SDS011;61094;51.154;13.570;2023-06-24T23:04:21;14.38;;;6.40;;
72939;SDS011;61094;51.154;13.570;2023-06-24T23:09:23;13.40;;;6.57;;
72939;SDS011;61094;51.154;13.570;2023-06-24T23:14:25;12.77;;;6.00;;
72939;SDS011;61094;51.154;13.570;2023-06-24T23:19:29;15.70;;;6.32;;
72939;SDS011;61094;51.154;13.570;2023-06-24T23:24:31;12.93;;;6.57;;
72939;SDS011;61094;51.154;13.570;2023-06-24T23:29:36;15.10;;;7.10;;
72939;SDS011;61094;51.154;13.570;2023-06-24T23:34:39;15.80;;;6.85;;
72939;SDS011;61094;51.154;13.570;2023-06-24T23:39:42;12.52;;;6.20;;
72939;SDS011;61094;51.154;13.570;2023-06-24T23:44:44;10.57;;;5.53;;
72939;SDS011;61094;51.154;13.570;2023-06-24T23:49:47;14.15;;;6.00;;
72939;SDS011;61094;51.154;13.570;2023-06-24T23:54:50;10.32;;;5.57;;
72939;SDS011;61094;51.154;13.570;2023-06-24T23:59:51;12.55;;;5.38;;
